首页
METAR-TAF:

METAR-TAF

机场 :

格域機場, 英格兰

纬度: 51-09N, 经度: 000-11W, 海拔: 62米

当前天气观测

该预报发布于29分钟前的04:20 UTC
风速1节,风向东转东北
温度 -2°C
湿度 100%
气压 1017 hPa
能見度: 0300
多云层高于100英尺
冻雾

METAR: EGKK 190420Z 07001KT 0300 R26L/P1500 FZFG BKN001 M02/M02 Q1017

时间: 04:49 (04:49 UTC)

预报

该预报发布于5小时和59分钟前的22:50 UTC
预报有效从19日的 00点(UTC)到 20日的 06点(UTC)
风速5节,风向西
能见度10公里或以上
少量云层高于3800英尺
成为
从 19日的 00点(UTC)到 19日的 03点(UTC)
能見度: 6000
成为
从 19日的 03点(UTC)到 19日的 05点(UTC)
能見度: 3000
浅雾, 轻雾
几率 40%
从 19日的 03点(UTC)到 19日的 10点(UTC)
能見度: 0300
冻雾
成为
从 19日的 10点(UTC)到 19日的 12点(UTC)
能见度10公里或以上
几率 30% :
短暂存在
从 19日的 10点(UTC)到 19日的 12点(UTC)
多云层高于400英尺
几率 30%
从 19日的 23点(UTC)到 20日的 06点(UTC)
能見度: 8000

TAF: EGKK 182250Z 1900/2006 26005KT 9999 FEW038 BECMG 1900/1903 6000 BECMG 1903/1905 3000 MIFG BR PROB40 1903/1910 0300 FZFG VV/// BECMG 1910/1912 9999 NSW PROB30 TEMPO 1910/1912 BKN004 PROB30 1923/2006 8000

超过4000个机场的气象观测和天气预报(METAR&TAF报告)。

可查询的气象台以黄色和红色小点在地图上表示。

将鼠标移到小点上方,可查看气象台名称。

然后点击查看天气观测和预报。

如需切换地图:点击带黑十字的绿色按钮放大地图;点击带横线的绿色按钮缩小地图;或者点击绿色箭头查看邻近地区的地图。


METAR-TAF: